Share

Arthur, ND

Harwood, ND (KNDHARWO2) Elev 886 ft | 46.98 °N, 96.88 °W | Change Station

Current weather conditions updated 9 minutes ago

Clear
Clear
30.3 °F
Feels Like 25 °F
N
5.0
Wind Variable Wind from NE
Gusts 10.0 mph
Sunrise 6:38 AM
Sunset 8:19 PM
Moon Waning Gibbous

Tomorrow is forecast to be Warmer than today.

Pressure 30.25 in
Visibility 10.0 miles
Clouds Clear
Windchill 25 °F
Dew Point 20 °F
Humidity 65%
Rainfall 0.02 in
Snow Depth Not available.
UV 0 out of 16
Pollen 2.90 out of 12
Air Quality Not available.
Flu Activity Sporadic
METAR KFAR 170253Z 35010KT 10SM CLR M01/M08 A3021 RMK AO2 SLP244 T10061078 53020

More Conditions Fewer Conditions

Pressure 30.25 in
Visibility 10.0 miles
Clouds Clear
Windchill 25 °F
Dew Point 20 °F
Humidity 65%
Rainfall 0.02 in
Snow Depth Not available.
UV 0 out of 16
Pollen 2.90 out of 12
Air Quality Not available.
Flu Activity Sporadic
METAR KFAR 170253Z 35010KT 10SM CLR M01/M08 A3021 RMK AO2 SLP244 T10061078 53020

More Conditions Fewer Conditions

10-Day Forecast

Almanac

Astronomy

Apr. 16, 2014 Rise Set
Actual Time 6:38 AM CDT 8:19 PM CDT
Civil Twilight 6:06 AM CDT 8:51 PM CDT
Nautical Twilight 5:27 AM CDT 9:30 PM CDT
Astronomical Twilight 4:45 AM CDT 10:13 PM CDT
Moon 10:10 PM CDT (4/16) 7:23 AM CDT (4/16)
Length of Visible Light 14h 44m
Length of Day
13h 40m
Tomorrow will be 3m 14s longer.
Waning Gibbous, 96% of the Moon is Illuminated
Today
Waning Gibbous
Apr 22
Last Quarter
Apr 29
New
May 6
First Quarter
May 14
Full

Today's Extremes

State Highs State Lows

Community

  • symphony in blue....
    symphony in blue....
  • Dawn Surprise
    Dawn Surprise
  • Yucca delight
    Yucca delight
  • Sunset inside of the Ocean
    Sunset inside of the Ocean
  • Lunar eclipse 15 April 2014
    Lunar eclipse 15 April 2014

WunderPhotos

Upload Photos

1,701,833 photos uploaded!

WunderBlogs® & News

Nearby

Snow Depth

Station Depth Elevation
No new snow has been reported.

Coastal Water Temperatures

Place Temperature
No Stations Reporting

Earthquake Activity

City Distance Mag. Time & Date
No recent earthquake activity has been reported nearby.
Minimum magnitude displayed is 2.5.

Nearby Weather Stations

Station Location Temp. Windchill Dew Point Humidity Wind Precip. Elev Updated Type
Harwood, ND, Harwood, ND 30.3 °F 25 °F 20 °F 65% NE  at  5.0 mph 0.00 in / hr 886 ft 10:16 PM CDT Normal
NDDOT Buffalo ND 38 MP 10, Ayr, ND 32 °F 22 °F 12 °F 44% NNE  at  14 mph 0.00 in / hr 1437 ft 9:10 PM CDT MADIS
Fargo, ND 31.3 °F 31 °F 20 °F 63% NNE  at  2.0 mph 0.00 in / hr 899 ft 10:26 PM CDT Rapid Fire
Westport Beach, West Fargo, ND 31.6 °F 26 °F 21 °F 64% NE  at  5.8 mph - / hr 896 ft 10:21 PM CDT Normal
Groovetones Central, Fargo, ND 31.9 °F 32 °F 18 °F 57% NW  at  2.0 mph 0.00 in / hr 899 ft 10:26 PM CDT Rapid Fire

Show More Stations Show Fewer Stations

What do you think?

We're not finished. Please let us know what you like, what you don't like, and what you are still missing.